Terminal Aerodrome Forecast
Issued by NWS

Home | Current Version | Previous Version | Text Only | Print | Product List | Glossary On
Versions: 1 2 3 4 5 6 7 8 9 10 11 12 13 14 15 16
173
FTUS42 KMLB 232334
TAFSFB
TAF
KSFB 232334Z 2400/2424 19005KT P6SM VCSH BKN035 BKN070
      TEMPO 2400/2402 5SM SHRA BKN030
     FM240400 20004KT P6SM SCT035 SCT070 BKN250
     FM241000 23003KT P6SM SCT012 BKN080
      TEMPO 2410/2413 BKN012
     FM241300 24005KT P6SM BKN015
     FM241600 26006KT P6SM VCSH SCT025 BKN040
     FM242100 29006KT P6SM SCT040 BKN070=

USA.gov is the U.S. government's official web portal to all federal, state and local government web resources and services.